Time;durP1;ratioP1;P1;durP2;ratioP2;P2;SDS_P1;SDS_P2;PMS_P1;PMS_P2;Temp;Humidity;BMP_temperature;BMP_pressure;BME280_temperature;BME280_humidity;BME280_pressure;Samples;Min_cycle;Max_cycle;Signal;HPM_P1;HPM_P2
2024/02/14 00:02:09;;;;;;;2.67;1.27;;;;;;;7.85;100.00;101225.50;4970269;28;20063;-78
2024/02/14 00:04:34;;;;;;;4.53;1.50;;;;;;;7.76;100.00;101226.25;5006497;28;20093;-78
2024/02/14 00:07:00;;;;;;;2.42;1.10;;;;;;;7.82;100.00;101227.50;4988345;28;20096;-78
2024/02/14 00:09:26;;;;;;;4.07;1.30;;;;;;;7.77;100.00;101218.38;4975916;28;20053;-79
2024/02/14 00:11:51;;;;;;;5.38;1.10;;;;;;;7.89;100.00;101214.00;4975181;28;20049;-78
2024/02/14 00:14:19;;;;;;;3.88;1.20;;;;;;;7.83;100.00;101218.81;5010849;28;20040;-78
2024/02/14 00:16:44;;;;;;;6.15;1.25;;;;;;;7.85;100.00;101211.78;4988692;28;20799;-78
2024/02/14 00:19:10;;;;;;;3.58;1.65;;;;;;;7.82;100.00;101214.59;5007952;28;20034;-78
2024/02/14 00:21:36;;;;;;;4.15;1.27;;;;;;;7.90;100.00;101219.97;4990675;28;20046;-78
2024/02/14 00:24:01;;;;;;;1.55;0.90;;;;;;;7.80;100.00;101212.16;4991637;28;20026;-78
2024/02/14 00:26:27;;;;;;;3.13;1.08;;;;;;;7.73;100.00;101223.94;4970056;28;20738;-78
2024/02/14 00:28:52;;;;;;;3.92;1.10;;;;;;;7.93;100.00;101224.84;4989473;28;20026;-77
2024/02/14 00:31:18;;;;;;;3.80;1.25;;;;;;;7.93;100.00;101217.94;4990216;28;20037;-78
2024/02/14 00:33:45;;;;;;;6.93;1.52;;;;;;;7.86;100.00;101213.41;4989329;28;20037;-78
2024/02/14 00:36:10;;;;;;;5.80;1.10;;;;;;;7.93;100.00;101214.53;4991612;28;20133;-78
2024/02/14 00:38:36;;;;;;;2.67;1.17;;;;;;;7.79;100.00;101223.44;4978111;28;20034;-77
2024/02/14 00:41:01;;;;;;;3.28;1.30;;;;;;;7.91;100.00;101216.41;4988689;28;20077;-78
2024/02/14 00:43:27;;;;;;;2.92;1.10;;;;;;;7.94;100.00;101213.59;4973888;28;20074;-78
2024/02/14 00:45:52;;;;;;;4.28;1.25;;;;;;;7.84;100.00;101208.38;4987069;28;20042;-78
2024/02/14 00:48:18;;;;;;;3.88;1.27;;;;;;;7.87;100.00;101209.88;4991530;28;20300;-78
2024/02/14 00:50:43;;;;;;;3.45;0.98;;;;;;;7.92;100.00;101200.81;5005764;28;20038;-78
2024/02/14 00:53:09;;;;;;;3.38;1.20;;;;;;;7.97;100.00;101192.69;4988244;28;20042;-78
2024/02/14 00:55:34;;;;;;;3.60;1.27;;;;;;;7.97;100.00;101196.06;4991493;28;20049;-78
2024/02/14 00:57:59;;;;;;;4.15;1.20;;;;;;;7.94;100.00;101198.09;5004840;28;20037;-78
2024/02/14 01:00:25;;;;;;;7.57;1.60;;;;;;;8.07;100.00;101190.94;4990454;28;20572;-78
2024/02/14 01:02:51;;;;;;;5.78;1.60;;;;;;;8.16;100.00;101184.19;4992407;28;20056;-77
2024/02/14 01:05:17;;;;;;;4.00;1.33;;;;;;;8.17;100.00;101190.97;4990045;28;20041;-78
2024/02/14 01:07:42;;;;;;;3.55;1.02;;;;;;;8.05;100.00;101181.69;4975051;28;20509;-79
2024/02/14 01:10:08;;;;;;;4.65;1.45;;;;;;;7.97;100.00;101192.69;4987515;28;20092;-78
2024/02/14 01:12:33;;;;;;;5.45;1.52;;;;;;;8.12;100.00;101185.41;4986828;28;20029;-78
2024/02/14 01:14:59;;;;;;;7.18;1.67;;;;;;;8.12;100.00;101175.06;4986066;28;20196;-77
2024/02/14 01:17:24;;;;;;;4.38;2.17;;;;;;;8.10;100.00;101179.53;4991536;28;20042;-77
2024/02/14 01:19:50;;;;;;;5.93;1.88;;;;;;;8.15;100.00;101177.38;4993554;28;20381;-77
2024/02/14 01:22:16;;;;;;;6.68;1.77;;;;;;;8.10;100.00;101177.78;4976446;28;20742;-78
2024/02/14 01:24:44;;;;;;;2.72;1.23;;;;;;;8.15;100.00;101175.59;4987948;28;20030;-77
2024/02/14 01:27:10;;;;;;;4.80;1.65;;;;;;;8.19;100.00;101176.16;4985357;28;20046;-77
2024/02/14 01:29:35;;;;;;;3.75;1.40;;;;;;;8.15;100.00;101180.75;4970567;28;20229;-78
2024/02/14 01:32:01;;;;;;;3.22;1.40;;;;;;;8.27;100.00;101180.66;4984440;28;20047;-76
2024/02/14 01:34:28;;;;;;;3.85;1.50;;;;;;;8.23;100.00;101171.56;4989031;28;20424;-79
2024/02/14 01:36:54;;;;;;;5.25;1.48;;;;;;;8.20;100.00;101175.22;4980990;28;20444;-77
2024/02/14 01:39:21;;;;;;;5.30;1.70;;;;;;;8.30;100.00;101167.50;4972112;28;20029;-78
2024/02/14 01:41:49;;;;;;;8.65;1.23;;;;;;;8.25;100.00;101175.66;4986716;28;20032;-77
2024/02/14 01:44:15;;;;;;;4.25;1.52;;;;;;;8.15;100.00;101173.03;4987231;28;20038;-77
2024/02/14 01:46:42;;;;;;;4.25;1.85;;;;;;;8.27;100.00;101175.50;4984986;28;20428;-77
2024/02/14 01:49:08;;;;;;;3.08;1.42;;;;;;;8.37;100.00;101179.75;5005032;28;20625;-77
2024/02/14 01:51:35;;;;;;;3.03;1.20;;;;;;;8.38;100.00;101177.97;5005819;28;20086;-77
2024/02/14 01:54:03;;;;;;;3.40;1.50;;;;;;;8.27;100.00;101176.34;4991445;28;20088;-77
2024/02/14 01:56:30;;;;;;;5.00;1.25;;;;;;;8.33;100.00;101177.59;4992243;28;20097;-77
2024/02/14 01:58:56;;;;;;;5.20;1.52;;;;;;;8.35;100.00;101171.31;4988291;28;20038;-77
2024/02/14 02:01:23;;;;;;;5.00;1.30;;;;;;;8.37;100.00;101173.78;4973721;28;20041;-77
2024/02/14 02:03:49;;;;;;;5.78;2.10;;;;;;;8.30;100.00;101175.25;4985370;28;20120;-78
2024/02/14 02:06:15;;;;;;;4.47;1.33;;;;;;;8.31;100.00;101169.94;4987407;28;20034;-77
2024/02/14 02:08:43;;;;;;;8.13;1.50;;;;;;;8.38;100.00;101165.06;4985488;28;20483;-77
2024/02/14 02:11:09;;;;;;;3.60;1.40;;;;;;;8.47;100.00;101191.91;4999171;28;20509;-77
2024/02/14 02:13:34;;;;;;;3.35;1.48;;;;;;;8.55;100.00;101192.06;4968182;28;20037;-77
2024/02/14 02:16:04;;;;;;;3.80;1.25;;;;;;;8.52;100.00;101187.19;4971476;28;20040;-78
2024/02/14 02:18:30;;;;;;;2.60;1.00;;;;;;;8.41;100.00;101195.81;4989330;28;20041;-77
2024/02/14 02:20:57;;;;;;;3.60;1.42;;;;;;;8.36;100.00;101196.22;4985004;28;20100;-77
2024/02/14 02:23:22;;;;;;;3.85;1.45;;;;;;;8.31;100.00;101198.38;5007830;28;20117;-77
2024/02/14 02:25:48;;;;;;;2.13;1.20;;;;;;;8.36;100.00;101191.06;4971360;28;20177;-77
2024/02/14 02:28:14;;;;;;;3.10;1.70;;;;;;;8.37;100.00;101182.34;4985726;28;20045;-77
2024/02/14 02:30:40;;;;;;;6.18;1.50;;;;;;;8.38;100.00;101186.56;4985626;28;20042;-77
2024/02/14 02:33:07;;;;;;;7.07;1.63;;;;;;;8.37;100.00;101187.50;4986291;28;20029;-77
2024/02/14 02:35:33;;;;;;;4.30;1.52;;;;;;;8.49;100.00;101183.06;4971076;28;20068;-77
2024/02/14 02:37:59;;;;;;;4.32;1.38;;;;;;;8.51;100.00;101190.69;4969284;28;20040;-77
2024/02/14 02:40:26;;;;;;;4.20;1.52;;;;;;;8.46;100.00;101178.19;4977301;28;20053;-77
2024/02/14 02:42:53;;;;;;;3.40;1.42;;;;;;;8.43;100.00;101187.97;4988575;28;20037;-77
2024/02/14 02:45:18;;;;;;;1.85;1.23;;;;;;;8.59;100.00;101180.53;4986223;28;20049;-77
2024/02/14 02:47:44;;;;;;;4.72;1.42;;;;;;;8.51;100.00;101188.94;4973442;28;20033;-77
2024/02/14 02:50:09;;;;;;;3.70;1.45;;;;;;;8.50;100.00;101183.91;4988174;28;25298;-77
2024/02/14 02:52:35;;;;;;;4.40;1.70;;;;;;;8.46;100.00;101185.13;4988156;28;20492;-77
2024/02/14 02:55:01;;;;;;;3.42;1.77;;;;;;;8.49;100.00;101187.44;4985162;28;20037;-77
2024/02/14 02:57:32;;;;;;;3.47;1.80;;;;;;;8.45;100.00;101183.47;4988795;28;20378;-77
2024/02/14 02:59:58;;;;;;;4.50;1.85;;;;;;;8.50;100.00;101176.97;4968507;28;20061;-77
2024/02/14 03:02:25;;;;;;;4.32;1.60;;;;;;;8.44;100.00;101181.84;4985222;28;20040;-77
2024/02/14 03:04:50;;;;;;;3.95;1.75;;;;;;;8.37;100.00;101181.53;4987789;28;20034;-77
2024/02/14 03:07:16;;;;;;;4.97;2.17;;;;;;;8.25;100.00;101179.97;4974220;28;20112;-77
2024/02/14 03:09:41;;;;;;;4.70;1.90;;;;;;;8.23;100.00;101177.56;4989784;28;20048;-77
2024/02/14 03:12:08;;;;;;;4.03;2.03;;;;;;;8.30;100.00;101170.88;4979669;28;20042;-77
2024/02/14 03:14:36;;;;;;;5.53;2.10;;;;;;;8.26;100.00;101176.47;4988287;28;20400;-77
2024/02/14 03:17:02;;;;;;;3.95;1.90;;;;;;;8.27;100.00;101173.75;4987171;28;20038;-77
2024/02/14 03:19:28;;;;;;;5.50;1.80;;;;;;;8.24;100.00;101171.44;4968665;28;20038;-77
2024/02/14 03:21:54;;;;;;;5.90;2.00;;;;;;;8.25;100.00;101180.81;4986898;28;20061;-77
2024/02/14 03:24:20;;;;;;;4.65;2.08;;;;;;;8.34;100.00;101168.88;4973355;28;20037;-77
2024/02/14 03:26:46;;;;;;;4.78;2.33;;;;;;;8.28;100.00;101175.38;4983242;28;20566;-77
2024/02/14 03:29:12;;;;;;;3.38;1.80;;;;;;;8.24;100.00;101168.03;5000715;28;20034;-77
2024/02/14 03:31:38;;;;;;;7.25;2.45;;;;;;;8.30;100.00;101167.50;4985529;28;20150;-77
2024/02/14 03:34:03;;;;;;;4.38;2.03;;;;;;;8.34;100.00;101158.53;4989140;28;20034;-77
2024/02/14 03:36:30;;;;;;;8.07;2.17;;;;;;;8.32;100.00;101163.81;4986383;28;20086;-76
2024/02/14 03:38:57;;;;;;;4.90;2.20;;;;;;;8.41;100.00;101167.38;5004242;28;20128;-77
2024/02/14 03:41:22;;;;;;;4.70;2.13;;;;;;;8.28;100.00;101156.47;4984439;28;20137;-77
2024/02/14 03:43:49;;;;;;;4.00;1.90;;;;;;;8.41;100.00;101167.38;5005907;28;20056;-77
2024/02/14 03:46:14;;;;;;;6.15;2.45;;;;;;;8.45;100.00;101168.78;4988862;28;20042;-77
2024/02/14 03:48:43;;;;;;;4.38;2.20;;;;;;;8.36;100.00;101188.47;4989484;28;20048;-77
2024/02/14 03:51:08;;;;;;;11.38;2.17;;;;;;;8.45;100.00;101178.31;4989935;28;20053;-77
2024/02/14 03:53:34;;;;;;;6.10;2.00;;;;;;;8.43;100.00;101183.59;5004567;28;20037;-77
2024/02/14 03:55:59;;;;;;;4.55;1.98;;;;;;;8.50;100.00;101176.16;5010407;28;20552;-77
2024/02/14 03:58:25;;;;;;;6.57;2.17;;;;;;;8.42;100.00;101170.81;4990553;28;20625;-77
2024/02/14 04:00:50;;;;;;;3.15;1.85;;;;;;;8.50;100.00;101168.41;4970363;28;20389;-77
2024/02/14 04:03:16;;;;;;;6.25;2.30;;;;;;;8.49;100.00;101164.97;4989613;28;20038;-77
2024/02/14 04:05:42;;;;;;;3.65;1.90;;;;;;;8.48;100.00;101173.69;5005029;28;20068;-77
2024/02/14 04:08:09;;;;;;;5.55;2.35;;;;;;;8.51;100.00;101183.78;4987924;28;20481;-77
2024/02/14 04:10:36;;;;;;;5.25;2.17;;;;;;;8.53;100.00;101187.03;5001577;28;20033;-76
2024/02/14 04:13:03;;;;;;;4.95;2.28;;;;;;;8.53;100.00;101175.88;4989645;28;20069;-77
2024/02/14 04:15:29;;;;;;;7.03;2.72;;;;;;;8.52;100.00;101179.41;4988460;28;20148;-77
2024/02/14 04:17:54;;;;;;;3.80;2.25;;;;;;;8.36;100.00;101185.88;4979383;28;20623;-77
2024/02/14 04:20:20;;;;;;;4.13;2.20;;;;;;;8.52;100.00;101180.22;4973075;28;20497;-77
2024/02/14 04:22:45;;;;;;;4.65;2.25;;;;;;;8.49;100.00;101188.25;4990004;28;20441;-77
2024/02/14 04:25:12;;;;;;;6.10;2.63;;;;;;;8.44;100.00;101194.75;4975327;28;20214;-77
2024/02/14 04:27:37;;;;;;;5.13;2.40;;;;;;;8.44;100.00;101189.59;4977850;28;20150;-77
2024/02/14 04:30:04;;;;;;;5.72;2.50;;;;;;;8.49;100.00;101192.59;4985553;28;20636;-77
2024/02/14 04:32:30;;;;;;;4.75;2.22;;;;;;;8.41;100.00;101190.66;4989385;28;20073;-77
2024/02/14 04:34:56;;;;;;;5.90;2.00;;;;;;;8.39;100.00;101193.34;4988750;28;20034;-77
2024/02/14 04:37:21;;;;;;;5.35;2.42;;;;;;;8.44;100.00;101202.50;4975330;28;20062;-77
2024/02/14 04:39:47;;;;;;;4.80;2.63;;;;;;;8.48;100.00;101196.16;5003733;28;20178;-77
2024/02/14 04:42:12;;;;;;;6.10;2.33;;;;;;;8.44;100.00;101203.34;5003508;28;20500;-77
2024/02/14 04:44:39;;;;;;;4.82;2.40;;;;;;;8.41;100.00;101208.75;5005002;28;20441;-77
2024/02/14 04:47:04;;;;;;;6.55;2.45;;;;;;;8.50;100.00;101207.16;4980667;28;20129;-77
2024/02/14 04:49:30;;;;;;;5.65;2.42;;;;;;;8.45;100.00;101212.72;4985236;28;20130;-77
2024/02/14 04:51:57;;;;;;;5.68;2.53;;;;;;;8.57;100.00;101208.28;5004352;28;20034;-77
2024/02/14 04:54:22;;;;;;;5.47;2.45;;;;;;;8.55;100.00;101207.56;5008501;28;20449;-76
2024/02/14 04:56:48;;;;;;;4.78;2.13;;;;;;;8.65;100.00;101212.78;4976236;28;20022;-77
2024/02/14 04:59:13;;;;;;;5.22;2.50;;;;;;;8.51;100.00;101219.97;4969984;28;20393;-76
2024/02/14 05:01:41;;;;;;;4.85;2.15;;;;;;;8.52;100.00;101224.16;4986570;28;20168;-77
2024/02/14 05:04:07;;;;;;;7.30;2.80;;;;;;;8.57;100.00;101231.53;4987972;28;20034;-76
2024/02/14 05:06:33;;;;;;;4.70;2.78;;;;;;;8.46;100.00;101231.66;4998985;28;20550;-76
2024/02/14 05:08:58;;;;;;;4.72;3.10;;;;;;;8.47;100.00;101231.50;4975903;28;20134;-77
2024/02/14 05:11:24;;;;;;;4.72;2.25;;;;;;;8.44;100.00;101234.38;4992330;28;20113;-77
2024/02/14 05:13:50;;;;;;;5.95;2.88;;;;;;;8.52;100.00;101244.84;4992600;28;20394;-78
2024/02/14 05:16:19;;;;;;;5.18;2.42;;;;;;;8.52;100.00;101241.44;4983661;28;20085;-76
2024/02/14 05:18:45;;;;;;;5.13;2.78;;;;;;;8.44;100.00;101236.09;4988912;28;20037;-77
2024/02/14 05:21:10;;;;;;;7.47;3.10;;;;;;;8.49;100.00;101234.75;4986564;28;20030;-77
2024/02/14 05:23:36;;;;;;;8.88;3.13;;;;;;;8.45;100.00;101235.16;5001111;28;20449;-77
2024/02/14 05:26:03;;;;;;;6.70;2.90;;;;;;;8.43;100.00;101235.28;4993243;28;20084;-77
2024/02/14 05:28:29;;;;;;;6.88;3.20;;;;;;;8.35;100.00;101250.63;4984132;28;20374;-77
2024/02/14 05:30:54;;;;;;;5.28;3.00;;;;;;;8.38;100.00;101246.00;4988804;28;20037;-76
2024/02/14 05:33:22;;;;;;;9.32;3.35;;;;;;;8.37;100.00;101243.56;4986004;28;20117;-77
2024/02/14 05:35:50;;;;;;;4.10;2.38;;;;;;;8.35;100.00;101240.28;5003331;28;20409;-77
2024/02/14 05:38:16;;;;;;;4.82;3.10;;;;;;;8.36;100.00;101241.91;5002116;28;20089;-77
2024/02/14 05:40:43;;;;;;;7.00;3.22;;;;;;;8.32;100.00;101225.84;4984090;28;20038;-77
2024/02/14 05:43:09;;;;;;;8.32;3.03;;;;;;;8.31;100.00;101238.91;4972633;28;20033;-77
2024/02/14 05:45:35;;;;;;;6.75;3.20;;;;;;;8.33;100.00;101252.50;4984059;28;20088;-77
2024/02/14 05:48:01;;;;;;;6.13;3.17;;;;;;;8.44;100.00;101249.88;4973749;28;20112;-77
2024/02/14 05:50:26;;;;;;;9.60;3.05;;;;;;;8.35;100.00;101242.88;4972138;28;20042;-77
2024/02/14 05:52:52;;;;;;;8.75;3.47;;;;;;;8.49;100.00;101239.13;4986817;28;20474;-77
2024/02/14 05:55:17;;;;;;;5.65;2.70;;;;;;;8.46;100.00;101239.41;4987529;28;20061;-77
2024/02/14 05:57:44;;;;;;;5.03;2.90;;;;;;;8.48;100.00;101234.91;5005297;28;20045;-77
2024/02/14 06:00:10;;;;;;;5.43;2.90;;;;;;;8.51;100.00;101238.06;4983460;28;20041;-77
2024/02/14 06:02:41;;;;;;;7.60;3.10;;;;;;;8.45;100.00;101237.75;4977775;28;20026;-77
2024/02/14 06:05:10;;;;;;;5.60;3.10;;;;;;;8.45;100.00;101230.81;4989495;28;20025;-77
2024/02/14 06:07:40;;;;;;;5.53;2.65;;;;;;;8.45;100.00;101230.00;4991526;28;20049;-77
2024/02/14 06:10:06;;;;;;;7.28;3.38;;;;;;;8.39;100.00;101237.28;5004664;28;20033;-77
2024/02/14 06:12:32;;;;;;;5.35;3.17;;;;;;;8.40;100.00;101238.13;4991207;28;20037;-77
2024/02/14 06:14:58;;;;;;;7.45;3.30;;;;;;;8.38;100.00;101247.75;4986469;28;20498;-76
2024/02/14 06:17:23;;;;;;;11.57;3.75;;;;;;;8.39;100.00;101242.47;4995480;28;20022;-77
2024/02/14 06:19:49;;;;;;;6.25;3.45;;;;;;;8.38;100.00;101247.75;4970686;28;20038;-77
2024/02/14 06:22:14;;;;;;;7.78;3.50;;;;;;;8.48;100.00;101242.66;4989232;28;20034;-75
2024/02/14 06:24:39;;;;;;;6.80;3.53;;;;;;;8.36;100.00;101250.50;4971529;28;20109;-77
2024/02/14 06:27:06;;;;;;;12.05;4.65;;;;;;;8.44;100.00;101243.84;5003672;28;20042;-76
2024/02/14 06:29:31;;;;;;;6.03;3.60;;;;;;;8.45;100.00;101255.84;4993614;28;20056;-76
2024/02/14 06:31:57;;;;;;;6.50;3.13;;;;;;;8.33;100.00;101252.50;4989211;28;20038;-77
2024/02/14 06:34:22;;;;;;;6.63;3.30;;;;;;;8.46;100.00;101257.50;4991114;28;20038;-76
2024/02/14 06:36:48;;;;;;;6.80;3.60;;;;;;;8.37;100.00;101259.88;4974767;28;20038;-76
2024/02/14 06:39:13;;;;;;;8.77;3.13;;;;;;;8.36;100.00;101262.56;4985157;28;20626;-76
2024/02/14 06:41:40;;;;;;;8.45;3.92;;;;;;;8.43;100.00;101268.88;5002973;28;20034;-76
2024/02/14 06:44:05;;;;;;;6.32;3.80;;;;;;;8.44;100.00;101267.97;5002810;28;20045;-76
2024/02/14 06:46:31;;;;;;;9.77;3.85;;;;;;;8.44;100.00;101261.94;4988365;28;20042;-76
2024/02/14 06:48:56;;;;;;;5.80;3.83;;;;;;;8.45;100.00;101267.00;4973942;28;20030;-77
2024/02/14 06:51:23;;;;;;;7.03;3.65;;;;;;;8.50;100.00;101271.78;4991356;28;20045;-76
2024/02/14 06:53:49;;;;;;;6.78;3.20;;;;;;;8.48;100.00;101276.28;5006240;28;20142;-77
2024/02/14 06:56:15;;;;;;;10.18;3.55;;;;;;;8.56;100.00;101279.00;4975231;28;20034;-76
2024/02/14 06:58:40;;;;;;;8.57;3.90;;;;;;;8.56;100.00;101277.22;5011641;28;20040;-77
2024/02/14 07:01:06;;;;;;;8.02;3.45;;;;;;;8.60;100.00;101282.97;4986980;28;20030;-77
2024/02/14 07:03:31;;;;;;;8.23;3.53;;;;;;;8.56;100.00;101285.00;5008206;28;20029;-77
2024/02/14 07:05:57;;;;;;;6.32;3.30;;;;;;;8.58;100.00;101290.03;4974832;28;20516;-77
2024/02/14 07:08:25;;;;;;;5.88;2.85;;;;;;;8.70;100.00;101283.00;4990559;28;20072;-77
2024/02/14 07:10:51;;;;;;;5.30;3.05;;;;;;;8.62;100.00;101294.00;4989638;28;20034;-77
2024/02/14 07:13:16;;;;;;;9.52;4.07;;;;;;;8.65;100.00;101288.56;5007233;28;20038;-76
2024/02/14 07:15:42;;;;;;;8.77;3.50;;;;;;;8.80;100.00;101283.00;4990098;28;20046;-77
2024/02/14 07:18:09;;;;;;;9.15;3.88;;;;;;;8.85;100.00;101289.41;5007292;28;20116;-76
2024/02/14 07:20:35;;;;;;;11.40;3.25;;;;;;;8.84;100.00;101290.38;4981498;28;20548;-77
2024/02/14 07:23:01;;;;;;;7.97;3.35;;;;;;;8.83;100.00;101290.50;4993617;28;20026;-77
2024/02/14 07:25:26;;;;;;;6.82;3.28;;;;;;;8.77;100.00;101287.50;5005732;28;20053;-76
2024/02/14 07:27:53;;;;;;;8.55;2.97;;;;;;;8.85;100.00;101299.75;4973206;28;20186;-76
2024/02/14 07:30:18;;;;;;;5.82;3.08;;;;;;;8.88;100.00;101296.91;4989415;28;20042;-76
2024/02/14 07:32:44;;;;;;;5.43;3.20;;;;;;;8.92;100.00;101292.31;4974116;28;20096;-77
2024/02/14 07:35:10;;;;;;;8.40;2.92;;;;;;;8.91;100.00;101298.41;4973412;28;20056;-76
2024/02/14 07:37:36;;;;;;;8.43;3.33;;;;;;;8.83;100.00;101295.69;5006161;28;20026;-76
2024/02/14 07:40:02;;;;;;;9.25;3.97;;;;;;;8.94;100.00;101301.56;5007226;28;20493;-77
2024/02/14 07:42:28;;;;;;;9.85;3.10;;;;;;;8.95;100.00;101299.81;4973557;28;20042;-77
2024/02/14 07:44:56;;;;;;;8.65;2.83;;;;;;;8.91;100.00;101298.41;4983151;28;20096;-76
2024/02/14 07:47:21;;;;;;;6.68;3.03;;;;;;;8.88;100.00;101302.09;4993192;28;20061;-76
2024/02/14 07:49:47;;;;;;;4.28;2.92;;;;;;;9.00;100.00;101307.97;5009622;28;20033;-76
2024/02/14 07:52:12;;;;;;;5.22;2.65;;;;;;;8.93;100.00;101312.06;4990249;28;20045;-76
2024/02/14 07:54:37;;;;;;;5.65;2.55;;;;;;;8.97;100.00;101308.25;5004416;28;20026;-77
2024/02/14 07:57:03;;;;;;;4.35;2.50;;;;;;;9.02;100.00;101310.44;4997748;28;20468;-76
2024/02/14 07:59:29;;;;;;;7.00;2.42;;;;;;;9.14;100.00;101319.72;5004300;28;20305;-76
2024/02/14 08:01:54;;;;;;;5.63;2.60;;;;;;;9.19;100.00;101314.94;4993579;28;20033;-76
2024/02/14 08:04:19;;;;;;;6.82;2.53;;;;;;;9.25;100.00;101311.00;5009139;28;20036;-77
2024/02/14 08:06:46;;;;;;;7.65;2.40;;;;;;;9.16;100.00;101317.81;4988218;28;20057;-76
2024/02/14 08:09:12;;;;;;;8.15;2.45;;;;;;;9.20;100.00;101315.78;4986632;28;20378;-77
2024/02/14 08:11:38;;;;;;;6.47;2.40;;;;;;;9.15;100.00;101319.59;4988366;28;20057;-76
2024/02/14 08:14:03;;;;;;;5.03;2.90;;;;;;;9.20;100.00;101319.19;4984719;28;20042;-76
2024/02/14 08:16:29;;;;;;;7.72;2.75;;;;;;;9.24;100.00;101317.16;5010670;28;20033;-76
2024/02/14 08:18:58;;;;;;;9.15;3.05;;;;;;;9.20;100.00;101334.72;5008119;28;20040;-76
2024/02/14 08:21:28;;;;;;;6.43;3.80;;;;;;;9.27;100.00;101324.66;4970984;28;20038;-76
2024/02/14 08:23:54;;;;;;;6.18;3.88;;;;;;;9.28;100.00;101331.44;4987955;28;20026;-76
2024/02/14 08:26:22;;;;;;;10.90;3.30;;;;;;;9.29;100.00;101322.75;5003151;28;20034;-76
2024/02/14 08:28:49;;;;;;;8.15;3.28;;;;;;;9.28;100.00;101331.44;4989500;28;20036;-76
2024/02/14 08:31:14;;;;;;;10.60;3.35;;;;;;;9.35;100.00;101333.34;4989605;28;20026;-75
2024/02/14 08:33:40;;;;;;;7.63;3.20;;;;;;;9.36;100.00;101339.34;4988841;28;20408;-76
2024/02/14 08:36:06;;;;;;;6.78;2.95;;;;;;;9.47;100.00;101346.97;4981063;28;20093;-77
2024/02/14 08:38:35;;;;;;;7.72;3.00;;;;;;;9.54;100.00;101347.28;4969737;28;20042;-77
2024/02/14 08:41:03;;;;;;;6.00;3.03;;;;;;;9.50;100.00;101348.50;4986831;28;20117;-75
2024/02/14 08:43:30;;;;;;;6.85;2.97;;;;;;;9.55;100.00;101341.16;5006077;28;20029;-77
2024/02/14 08:45:55;;;;;;;8.40;3.33;;;;;;;9.60;100.00;101346.72;4997623;28;20038;-76
2024/02/14 08:48:22;;;;;;;6.72;2.90;;;;;;;9.60;100.00;101336.38;4974058;28;20048;-77
2024/02/14 08:50:47;;;;;;;5.35;2.67;;;;;;;9.69;100.00;101339.91;4989010;28;20038;-76
2024/02/14 08:53:15;;;;;;;8.48;3.38;;;;;;;9.78;100.00;101338.28;4988102;28;20025;-76
2024/02/14 08:55:41;;;;;;;8.93;3.00;;;;;;;9.92;100.00;101336.06;4965185;28;20489;-77
2024/02/14 08:58:09;;;;;;;7.60;3.50;;;;;;;10.07;100.00;101328.69;4973058;28;20089;-77
2024/02/14 09:00:35;;;;;;;6.30;3.78;;;;;;;10.15;100.00;101338.34;4986063;28;20065;-76
2024/02/14 09:03:02;;;;;;;7.10;3.28;;;;;;;10.14;100.00;101334.13;5001859;28;20030;-76
2024/02/14 09:05:28;;;;;;;14.13;3.50;;;;;;;10.15;100.00;101330.56;4987534;28;20038;-76
2024/02/14 09:07:54;;;;;;;12.95;3.78;;;;;;;10.16;100.00;101339.19;4988414;28;20036;-76
2024/02/14 09:10:20;;;;;;;11.50;3.20;;;;;;;10.18;100.00;101338.06;4984492;28;20038;-77
2024/02/14 09:12:45;;;;;;;10.30;3.35;;;;;;;10.17;100.00;101340.81;4990367;28;20026;-75
2024/02/14 09:15:11;;;;;;;8.75;3.10;;;;;;;10.15;100.00;101346.13;4969873;28;20042;-76
2024/02/14 09:17:38;;;;;;;4.85;2.20;;;;;;;10.12;100.00;101344.63;4988513;28;20034;-76
2024/02/14 09:20:06;;;;;;;5.40;2.42;;;;;;;10.16;100.00;101341.78;5004148;28;20033;-76
2024/02/14 09:22:33;;;;;;;8.60;2.95;;;;;;;10.15;100.00;101348.72;5003945;28;20042;-76
2024/02/14 09:24:58;;;;;;;7.82;2.80;;;;;;;10.18;100.00;101345.03;4988126;28;20451;-76
2024/02/14 09:27:24;;;;;;;7.75;2.88;;;;;;;10.19;100.00;101339.72;5004910;28;20038;-76
2024/02/14 09:29:49;;;;;;;8.63;2.72;;;;;;;10.07;100.00;101335.66;4974452;28;20089;-76
2024/02/14 09:32:15;;;;;;;6.53;2.78;;;;;;;10.19;100.00;101342.31;4985288;28;20129;-76
2024/02/14 09:34:40;;;;;;;8.50;2.58;;;;;;;10.28;100.00;101344.06;4989262;28;20092;-76
2024/02/14 09:37:06;;;;;;;7.07;2.75;;;;;;;10.26;100.00;101352.91;5009838;28;20081;-77
2024/02/14 09:39:33;;;;;;;7.88;2.00;;;;;;;10.24;100.00;101355.66;5012005;28;20089;-77
2024/02/14 09:42:02;;;;;;;6.88;1.98;;;;;;;10.31;100.00;101356.75;4990912;28;20493;-76
2024/02/14 09:44:31;;;;;;;7.95;2.17;;;;;;;10.37;100.00;101362.34;4987576;28;20114;-76
2024/02/14 09:46:57;;;;;;;3.75;2.10;;;;;;;10.43;100.00;101361.78;4991694;28;20069;-76
2024/02/14 09:49:24;;;;;;;6.97;2.10;;;;;;;10.38;100.00;101364.81;4994746;28;20377;-77
2024/02/14 09:51:51;;;;;;;6.07;2.58;;;;;;;10.52;100.00;101366.13;5007741;28;20050;-75
2024/02/14 09:54:17;;;;;;;7.20;2.00;;;;;;;10.45;100.00;101363.28;4993588;28;20034;-76
2024/02/14 09:56:53;;;;;;;9.77;1.92;;;;;;;10.53;100.00;101367.75;4991011;28;20523;-77
2024/02/14 09:59:19;;;;;;;9.60;2.13;;;;;;;10.48;100.00;101367.38;4991395;28;20033;-76
2024/02/14 10:01:45;;;;;;;6.05;1.55;;;;;;;10.57;100.00;101376.06;5011501;28;20038;-77
2024/02/14 10:04:11;;;;;;;6.00;1.80;;;;;;;10.65;100.00;101366.63;5009621;28;20633;-76
2024/02/14 10:06:37;;;;;;;4.80;1.33;;;;;;;10.62;100.00;101366.06;4993017;28;20045;-77
2024/02/14 10:09:02;;;;;;;7.18;1.65;;;;;;;10.77;100.00;101369.03;5010308;28;20022;-76
2024/02/14 10:11:28;;;;;;;7.00;1.90;;;;;;;10.76;100.00;101375.19;5008761;28;20041;-76
2024/02/14 10:13:57;;;;;;;5.97;1.83;;;;;;;10.76;100.00;101376.00;5010150;28;20026;-76
2024/02/14 10:16:22;;;;;;;11.18;1.80;;;;;;;10.69;100.00;101386.13;5004734;28;20405;-76
2024/02/14 10:18:49;;;;;;;5.78;1.40;;;;;;;10.77;100.00;101385.41;4992098;28;20078;-76
2024/02/14 10:21:18;;;;;;;8.35;1.50;;;;;;;10.79;100.00;101385.25;5009620;28;20045;-76
2024/02/14 10:23:45;;;;;;;6.38;1.80;;;;;;;10.83;100.00;101387.44;5010317;28;20050;-77
2024/02/14 10:26:11;;;;;;;8.63;1.70;;;;;;;10.95;100.00;101387.25;5009262;28;20065;-76
2024/02/14 10:28:36;;;;;;;6.03;1.70;;;;;;;11.22;100.00;101391.59;4976099;28;20030;-76
2024/02/14 10:31:02;;;;;;;6.32;1.63;;;;;;;11.28;100.00;101385.81;4990052;28;20517;-76
2024/02/14 10:33:29;;;;;;;7.35;1.40;;;;;;;11.27;100.00;101386.81;4989685;28;20034;-76
2024/02/14 10:35:56;;;;;;;5.03;1.45;;;;;;;11.13;100.00;101388.09;5009928;28;20191;-76
2024/02/14 10:38:22;;;;;;;6.88;1.65;;;;;;;11.23;100.00;101388.88;4990086;28;20041;-75
2024/02/14 10:40:48;;;;;;;9.15;2.42;;;;;;;11.25;100.00;101381.75;5007662;28;20099;-76
2024/02/14 10:43:14;;;;;;;9.63;2.13;;;;;;;11.40;100.00;101373.47;5006759;28;20088;-77
2024/02/14 10:45:40;;;;;;;6.30;1.45;;;;;;;11.54;100.00;101380.72;4990696;28;21762;-76
2024/02/14 10:48:10;;;;;;;3.72;1.77;;;;;;;11.61;100.00;101373.97;4974270;28;20460;-76
2024/02/14 10:50:41;;;;;;;3.72;1.70;;;;;;;11.69;100.00;101374.03;4991112;28;20061;-75
2024/02/14 10:53:12;;;;;;;6.60;1.40;;;;;;;11.67;100.00;101386.38;4988276;28;20629;-76
2024/02/14 10:55:40;;;;;;;4.47;1.30;;;;;;;11.74;100.00;101378.81;4972077;28;20052;-76
2024/02/14 10:58:07;;;;;;;2.88;1.05;;;;;;;11.85;100.00;101381.19;5007963;28;20041;-77
2024/02/14 11:00:33;;;;;;;3.47;1.20;;;;;;;11.92;100.00;101388.41;4994388;28;20041;-76
2024/02/14 11:03:00;;;;;;;5.70;1.98;;;;;;;12.07;100.00;101389.47;5010692;28;20396;-77
2024/02/14 11:05:26;;;;;;;3.03;1.15;;;;;;;11.91;100.00;101382.38;5006427;28;20045;-76
2024/02/14 11:07:54;;;;;;;5.07;1.20;;;;;;;12.08;100.00;101391.94;4977767;28;20037;-76
2024/02/14 11:10:21;;;;;;;3.17;0.93;;;;;;;12.10;100.00;101377.97;4995951;28;20632;-76
2024/02/14 11:12:50;;;;;;;5.65;1.13;;;;;;;12.03;100.00;101380.34;5009322;28;20504;-77
2024/02/14 11:15:17;;;;;;;5.68;0.90;;;;;;;12.13;100.00;101382.88;4996587;28;20584;-76
2024/02/14 11:17:43;;;;;;;2.65;0.90;;;;;;;12.18;100.00;101367.63;4997289;28;20052;-76
2024/02/14 11:20:16;;;;;;;3.88;1.17;;;;;;;12.26;100.00;101381.50;4989857;28;20436;-77